createdAt,value
2022-11-29T00:00:30.020Z,100.00
2022-11-29T00:02:56.626Z,100.00
2022-11-29T00:05:23.228Z,100.00
2022-11-29T00:07:49.892Z,100.00
2022-11-29T00:10:16.567Z,100.00
2022-11-29T00:12:43.137Z,100.00
2022-11-29T00:15:09.680Z,100.00
2022-11-29T00:17:36.367Z,100.00
2022-11-29T00:20:03.343Z,100.00
2022-11-29T00:22:30.233Z,100.00
2022-11-29T00:24:56.797Z,100.00
2022-11-29T00:27:23.519Z,100.00
2022-11-29T00:29:50.122Z,100.00
2022-11-29T00:32:16.643Z,100.00
2022-11-29T00:34:43.414Z,100.00
2022-11-29T00:37:10.218Z,100.00
2022-11-29T00:39:36.787Z,100.00
2022-11-29T00:42:03.594Z,100.00
2022-11-29T00:44:33.231Z,100.00
2022-11-29T00:46:59.918Z,100.00
2022-11-29T00:49:26.445Z,100.00
2022-11-29T00:51:53.034Z,100.00
2022-11-29T00:54:19.603Z,100.00
2022-11-29T00:56:46.161Z,100.00
2022-11-29T00:59:12.756Z,100.00
2022-11-29T01:01:39.333Z,100.00
2022-11-29T01:04:05.997Z,100.00
2022-11-29T01:06:32.794Z,100.00
2022-11-29T01:08:59.324Z,100.00
2022-11-29T01:11:27.851Z,100.00
2022-11-29T01:13:57.588Z,100.00
2022-11-29T01:16:24.709Z,100.00
2022-11-29T01:18:51.449Z,100.00
2022-11-29T01:21:21.921Z,100.00
2022-11-29T01:23:50.411Z,100.00
2022-11-29T01:26:20.418Z,100.00
2022-11-29T01:28:49.656Z,100.00
2022-11-29T01:31:20.694Z,100.00
2022-11-29T01:33:47.477Z,100.00
2022-11-29T01:36:14.763Z,100.00
2022-11-29T01:38:42.531Z,100.00
2022-11-29T01:41:29.980Z,100.00
2022-11-29T01:44:01.562Z,100.00
2022-11-29T01:46:30.832Z,100.00
2022-11-29T01:49:03.541Z,100.00
2022-11-29T01:51:31.292Z,100.00
2022-11-29T01:53:58.574Z,100.00
2022-11-29T01:56:25.655Z,100.00
2022-11-29T01:58:52.408Z,100.00
2022-11-29T02:01:19.095Z,100.00
2022-11-29T02:03:45.785Z,100.00
2022-11-29T02:06:13.131Z,100.00
2022-11-29T02:08:44.236Z,100.00
2022-11-29T02:11:45.019Z,100.00
2022-11-29T02:14:33.626Z,100.00
2022-11-29T02:17:15.144Z,100.00
2022-11-29T02:20:12.258Z,100.00
2022-11-29T02:22:56.253Z,100.00
2022-11-29T02:25:44.570Z,100.00
2022-11-29T02:28:36.664Z,100.00
2022-11-29T02:31:24.918Z,100.00
2022-11-29T02:34:15.091Z,100.00
2022-11-29T02:36:47.961Z,100.00
2022-11-29T02:39:35.689Z,100.00
2022-11-29T02:42:23.557Z,100.00
2022-11-29T02:44:58.926Z,100.00
2022-11-29T02:47:28.500Z,100.00
2022-11-29T02:50:07.173Z,100.00
2022-11-29T02:52:45.540Z,100.00
2022-11-29T02:55:34.875Z,100.00
2022-11-29T02:58:25.879Z,100.00
2022-11-29T03:01:11.359Z,100.00
2022-11-29T03:03:53.138Z,100.00
2022-11-29T03:06:45.897Z,100.00
2022-11-29T03:09:21.942Z,100.00
2022-11-29T03:12:18.689Z,100.00
2022-11-29T03:15:17.605Z,100.00
2022-11-29T03:18:05.601Z,100.00
2022-11-29T03:20:50.153Z,100.00
2022-11-29T03:23:25.602Z,100.00
2022-11-29T03:25:59.645Z,100.00
2022-11-29T03:29:11.053Z,100.00
2022-11-29T03:31:58.845Z,100.00
2022-11-29T03:34:25.358Z,100.00
2022-11-29T03:37:20.918Z,100.00
2022-11-29T03:40:02.550Z,100.00
2022-11-29T03:42:56.519Z,100.00
2022-11-29T03:45:48.603Z,100.00
2022-11-29T03:48:21.921Z,100.00
2022-11-29T03:50:59.926Z,100.00
2022-11-29T03:53:36.067Z,100.00
2022-11-29T03:56:21.913Z,100.00
2022-11-29T03:58:51.357Z,100.00
2022-11-29T04:01:45.661Z,100.00
2022-11-29T04:04:30.877Z,100.00
2022-11-29T04:07:16.383Z,100.00
2022-11-29T04:09:49.059Z,100.00
2022-11-29T04:12:49.341Z,100.00
2022-11-29T04:15:27.780Z,100.00
2022-11-29T04:18:12.196Z,100.00
2022-11-29T04:21:16.137Z,100.00
2022-11-29T04:24:10.384Z,100.00
2022-11-29T04:27:07.713Z,100.00
2022-11-29T04:29:46.215Z,100.00
2022-11-29T04:32:33.885Z,100.00
2022-11-29T04:35:33.970Z,100.00
2022-11-29T04:38:00.520Z,100.00
2022-11-29T04:40:51.782Z,100.00
2022-11-29T04:43:30.234Z,100.00
2022-11-29T04:46:37.574Z,100.00
2022-11-29T04:49:10.081Z,100.00
2022-11-29T04:51:42.375Z,100.00
2022-11-29T04:54:33.090Z,100.00
2022-11-29T04:57:08.808Z,100.00
2022-11-29T05:00:09.898Z,100.00
2022-11-29T05:02:54.893Z,100.00
2022-11-29T05:05:30.791Z,100.00
2022-11-29T05:08:16.411Z,100.00
2022-11-29T05:10:55.166Z,100.00
2022-11-29T05:13:56.602Z,100.00
2022-11-29T05:16:32.466Z,100.00
2022-11-29T05:19:07.978Z,100.00
2022-11-29T05:21:53.162Z,100.00
2022-11-29T05:24:44.000Z,100.00
2022-11-29T05:27:44.411Z,100.00
2022-11-29T05:30:17.837Z,100.00
2022-11-29T05:32:44.364Z,100.00
2022-11-29T05:35:26.281Z,100.00
2022-11-29T05:37:57.274Z,100.00
2022-11-29T05:40:46.665Z,100.00
2022-11-29T05:43:48.492Z,100.00
2022-11-29T05:46:26.801Z,100.00
2022-11-29T05:48:58.309Z,100.00
2022-11-29T05:51:40.210Z,100.00
2022-11-29T05:54:29.528Z,100.00
2022-11-29T05:57:37.298Z,100.00
2022-11-29T06:00:06.086Z,100.00
2022-11-29T06:02:44.572Z,100.00
2022-11-29T06:05:28.927Z,100.00
2022-11-29T06:08:16.888Z,100.00
2022-11-29T06:11:06.709Z,100.00
2022-11-29T06:13:42.987Z,100.00
2022-11-29T06:16:31.428Z,100.00
2022-11-29T06:19:23.971Z,100.00
2022-11-29T06:22:02.577Z,100.00
2022-11-29T06:24:34.386Z,100.00
2022-11-29T06:27:06.934Z,100.00
2022-11-29T06:29:54.393Z,100.00
2022-11-29T06:32:44.067Z,100.00
2022-11-29T06:35:16.880Z,100.00
2022-11-29T06:37:50.357Z,100.00
2022-11-29T06:40:17.299Z,100.00
2022-11-29T06:42:43.987Z,100.00
2022-11-29T06:45:15.087Z,100.00
2022-11-29T06:47:52.272Z,100.00
2022-11-29T06:50:24.855Z,100.00
2022-11-29T06:53:22.313Z,100.00
2022-11-29T06:56:18.256Z,100.00
2022-11-29T06:58:57.947Z,100.00
2022-11-29T07:01:42.011Z,100.00
2022-11-29T07:04:14.795Z,100.00
2022-11-29T07:06:41.737Z,100.00
2022-11-29T07:09:16.028Z,100.00
2022-11-29T07:11:43.149Z,100.00
2022-11-29T07:14:10.398Z,100.00
2022-11-29T07:16:53.153Z,100.00
2022-11-29T07:19:56.772Z,100.00
2022-11-29T07:23:01.009Z,100.00
2022-11-29T07:25:49.076Z,100.00
2022-11-29T07:29:12.894Z,100.00
2022-11-29T07:31:45.218Z,100.00
2022-11-29T07:34:33.525Z,100.00
2022-11-29T07:37:22.102Z,100.00
2022-11-29T07:39:58.054Z,100.00
2022-11-29T07:43:29.143Z,100.00
2022-11-29T07:45:57.500Z,100.00
2022-11-29T07:48:24.315Z,100.00
2022-11-29T07:50:50.968Z,100.00
2022-11-29T07:53:19.589Z,100.00
2022-11-29T07:55:46.709Z,100.00
2022-11-29T07:58:15.112Z,100.00
2022-11-29T08:00:42.742Z,100.00
2022-11-29T08:03:10.056Z,100.00
2022-11-29T08:05:38.515Z,100.00
2022-11-29T08:08:05.649Z,100.00
2022-11-29T08:10:32.600Z,100.00
2022-11-29T08:12:59.296Z,100.00
2022-11-29T08:15:26.148Z,100.00
2022-11-29T08:17:53.294Z,100.00
2022-11-29T08:20:19.941Z,100.00
2022-11-29T08:22:57.332Z,100.00
2022-11-29T08:25:24.607Z,100.00
2022-11-29T08:27:51.812Z,100.00
2022-11-29T08:30:22.226Z,100.00
2022-11-29T08:32:52.734Z,100.00
2022-11-29T08:35:21.934Z,100.00
2022-11-29T08:37:49.071Z,100.00
2022-11-29T08:40:16.603Z,100.00
2022-11-29T08:42:43.256Z,100.00
2022-11-29T08:45:11.157Z,100.00
2022-11-29T08:47:38.965Z,100.00
2022-11-29T08:50:14.279Z,100.00
2022-11-29T08:53:02.398Z,100.00
2022-11-29T08:55:36.284Z,100.00
2022-11-29T08:58:08.806Z,100.00
2022-11-29T09:00:36.506Z,100.00
2022-11-29T09:03:24.292Z,100.00
2022-11-29T09:05:51.972Z,100.00
2022-11-29T09:08:19.028Z,100.00
2022-11-29T09:10:46.025Z,100.00
2022-11-29T09:13:12.859Z,100.00
2022-11-29T09:15:41.919Z,100.00
2022-11-29T09:18:08.618Z,100.00
2022-11-29T09:20:35.462Z,100.00
2022-11-29T09:23:02.356Z,100.00
2022-11-29T09:25:29.297Z,100.00
2022-11-29T09:27:58.921Z,100.00
2022-11-29T09:30:26.440Z,100.00
2022-11-29T09:32:53.125Z,100.00
2022-11-29T09:35:19.729Z,100.00
2022-11-29T09:37:46.315Z,100.00
2022-11-29T09:40:19.660Z,100.00
2022-11-29T09:42:52.273Z,100.00
2022-11-29T09:45:36.588Z,100.00
2022-11-29T09:48:24.566Z,100.00
2022-11-29T09:51:15.719Z,100.00
2022-11-29T09:54:15.978Z,100.00
2022-11-29T09:56:46.497Z,100.00
2022-11-29T09:59:25.535Z,100.00
2022-11-29T10:02:06.226Z,100.00
2022-11-29T10:04:44.416Z,100.00
2022-11-29T10:07:21.831Z,100.00
2022-11-29T10:10:16.165Z,100.00
2022-11-29T10:12:42.733Z,100.00
2022-11-29T10:15:28.561Z,100.00
2022-11-29T10:18:22.200Z,100.00
2022-11-29T10:20:51.897Z,100.00
2022-11-29T10:23:29.584Z,100.00
2022-11-29T10:25:57.861Z,100.00
2022-11-29T10:28:31.304Z,100.00
2022-11-29T10:31:14.172Z,100.00
2022-11-29T10:33:42.073Z,100.00
2022-11-29T10:36:47.549Z,100.00
2022-11-29T10:39:37.160Z,100.00
2022-11-29T10:42:25.820Z,100.00
2022-11-29T10:44:52.554Z,100.00
2022-11-29T10:47:19.176Z,100.00
2022-11-29T10:49:45.839Z,100.00
2022-11-29T10:52:20.071Z,100.00
2022-11-29T10:54:47.705Z,100.00
2022-11-29T10:57:17.734Z,100.00
2022-11-29T11:00:09.860Z,100.00
2022-11-29T11:02:36.995Z,100.00
2022-11-29T11:05:13.327Z,100.00
2022-11-29T11:07:40.087Z,100.00
2022-11-29T11:10:26.491Z,100.00
2022-11-29T11:13:08.225Z,100.00
2022-11-29T11:15:35.126Z,100.00
2022-11-29T11:18:07.038Z,100.00
2022-11-29T11:20:37.911Z,100.00
2022-11-29T11:23:08.039Z,100.00
2022-11-29T11:25:40.066Z,100.00
2022-11-29T11:28:22.323Z,100.00
2022-11-29T11:31:04.559Z,100.00
2022-11-29T11:33:34.914Z,100.00
2022-11-29T11:36:26.432Z,100.00
2022-11-29T11:38:58.355Z,100.00
2022-11-29T11:41:53.830Z,100.00
2022-11-29T11:44:46.552Z,100.00
2022-11-29T11:47:17.862Z,100.00
2022-11-29T11:49:49.639Z,100.00
2022-11-29T11:52:21.639Z,100.00
2022-11-29T11:54:58.028Z,100.00
2022-11-29T11:57:25.759Z,100.00
2022-11-29T11:59:54.914Z,100.00
2022-11-29T12:02:27.446Z,98.23
2022-11-29T12:04:58.924Z,100.00
2022-11-29T12:08:06.877Z,100.00
2022-11-29T12:10:32.423Z,100.00
2022-11-29T12:13:00.438Z,99.64
2022-11-29T12:15:38.307Z,99.95
2022-11-29T12:18:22.766Z,98.54
2022-11-29T12:21:27.572Z,100.00
2022-11-29T12:24:03.335Z,100.00
2022-11-29T12:26:58.391Z,98.96
2022-11-29T12:29:30.314Z,100.00
2022-11-29T12:32:08.850Z,98.95
2022-11-29T12:34:50.456Z,100.00
2022-11-29T12:37:57.485Z,99.48
2022-11-29T12:40:49.316Z,98.53
2022-11-29T12:43:35.544Z,98.01
2022-11-29T12:46:13.893Z,97.66
2022-11-29T12:48:55.417Z,100.00
2022-11-29T12:51:54.989Z,100.00
2022-11-29T12:54:36.727Z,100.00
2022-11-29T12:57:35.357Z,99.95
2022-11-29T13:00:08.171Z,97.55
2022-11-29T13:02:47.147Z,98.49
2022-11-29T13:05:36.573Z,96.55
2022-11-29T13:08:21.738Z,97.02
2022-11-29T13:11:00.311Z,96.89
2022-11-29T13:13:42.998Z,93.35
2022-11-29T13:16:31.331Z,92.40
2022-11-29T13:19:07.162Z,95.50
2022-11-29T13:21:42.943Z,95.84
2022-11-29T13:24:25.773Z,97.23
2022-11-29T13:26:53.387Z,99.23
2022-11-29T13:29:20.783Z,99.45
2022-11-29T13:31:48.976Z,100.00
2022-11-29T13:34:23.101Z,100.00
2022-11-29T13:37:07.104Z,100.00
2022-11-29T13:39:55.334Z,100.00
2022-11-29T13:42:39.006Z,100.00
2022-11-29T13:45:37.716Z,100.00
2022-11-29T13:48:46.619Z,100.00
2022-11-29T13:51:35.721Z,99.91
2022-11-29T13:54:26.953Z,99.88
2022-11-29T13:57:06.343Z,100.00
2022-11-29T13:59:37.000Z,100.00
2022-11-29T14:02:24.794Z,100.00
2022-11-29T14:04:52.087Z,100.00
2022-11-29T14:07:19.893Z,100.00
2022-11-29T14:10:07.000Z,99.58
2022-11-29T14:12:53.502Z,100.00
2022-11-29T14:15:27.705Z,100.00
2022-11-29T14:18:01.178Z,100.00
2022-11-29T14:20:30.723Z,100.00
2022-11-29T14:23:06.463Z,100.00
2022-11-29T14:28:20.776Z,100.00
2022-11-29T14:30:52.981Z,100.00
2022-11-29T14:33:26.856Z,100.00
2022-11-29T14:36:38.186Z,100.00
2022-11-29T14:39:19.001Z,100.00
2022-11-29T14:41:51.176Z,100.00
2022-11-29T14:44:24.826Z,100.00
2022-11-29T14:47:15.811Z,100.00
2022-11-29T14:49:44.631Z,100.00
2022-11-29T14:52:13.989Z,100.00
2022-11-29T14:54:54.538Z,100.00
2022-11-29T14:57:52.753Z,100.00
2022-11-29T15:00:22.310Z,100.00
2022-11-29T15:02:55.142Z,100.00
2022-11-29T15:05:30.923Z,100.00
2022-11-29T15:08:35.120Z,100.00
2022-11-29T15:11:13.716Z,100.00
2022-11-29T15:13:54.740Z,100.00
2022-11-29T15:16:34.799Z,100.00
2022-11-29T15:19:26.333Z,100.00
2022-11-29T15:22:08.463Z,100.00
2022-11-29T15:24:55.202Z,100.00
2022-11-29T15:27:23.021Z,100.00
2022-11-29T15:29:49.845Z,100.00
2022-11-29T15:32:29.555Z,100.00
2022-11-29T15:34:57.078Z,100.00
2022-11-29T15:37:39.955Z,100.00
2022-11-29T15:40:15.100Z,100.00
2022-11-29T15:43:19.144Z,100.00
2022-11-29T15:45:50.740Z,100.00
2022-11-29T15:48:23.850Z,100.00
2022-11-29T15:50:53.794Z,100.00
2022-11-29T15:53:26.760Z,100.00
2022-11-29T15:55:56.721Z,100.00
2022-11-29T15:58:27.345Z,100.00
2022-11-29T16:00:55.087Z,100.00
2022-11-29T16:03:26.667Z,100.00
2022-11-29T16:06:03.639Z,100.00
2022-11-29T16:08:35.298Z,100.00
2022-11-29T16:11:02.179Z,100.00
2022-11-29T16:13:32.146Z,100.00
2022-11-29T16:16:19.630Z,100.00
2022-11-29T16:18:48.021Z,100.00
2022-11-29T16:21:25.481Z,100.00
2022-11-29T16:23:53.200Z,100.00
2022-11-29T16:26:32.808Z,100.00
2022-11-29T16:29:00.425Z,100.00
2022-11-29T16:31:36.409Z,100.00
2022-11-29T16:34:09.155Z,100.00
2022-11-29T16:36:36.224Z,100.00
2022-11-29T16:39:07.927Z,100.00
2022-11-29T16:41:37.829Z,100.00
2022-11-29T16:44:06.934Z,100.00
2022-11-29T16:46:40.018Z,100.00
2022-11-29T16:49:35.895Z,100.00
2022-11-29T16:52:04.115Z,100.00
2022-11-29T16:54:35.502Z,100.00
2022-11-29T16:57:05.998Z,100.00
2022-11-29T16:59:32.616Z,100.00
2022-11-29T17:01:59.441Z,100.00
2022-11-29T17:04:26.493Z,100.00
2022-11-29T17:06:55.021Z,100.00
2022-11-29T17:09:25.194Z,100.00
2022-11-29T17:11:52.183Z,100.00
2022-11-29T17:14:18.797Z,100.00
2022-11-29T17:16:49.227Z,100.00
2022-11-29T17:19:16.505Z,100.00
2022-11-29T17:21:43.609Z,100.00
2022-11-29T17:24:13.711Z,100.00
2022-11-29T17:26:41.689Z,100.00
2022-11-29T17:29:10.908Z,100.00
2022-11-29T17:31:37.804Z,100.00
2022-11-29T17:34:04.928Z,100.00
2022-11-29T17:36:31.712Z,100.00
2022-11-29T17:39:02.365Z,100.00
2022-11-29T17:41:30.431Z,100.00
2022-11-29T17:43:57.883Z,100.00
2022-11-29T17:46:36.080Z,100.00
2022-11-29T17:49:06.803Z,100.00
2022-11-29T17:51:52.301Z,100.00
2022-11-29T17:54:19.688Z,100.00
2022-11-29T17:56:46.486Z,100.00
2022-11-29T17:59:13.070Z,100.00
2022-11-29T18:01:39.831Z,100.00
2022-11-29T18:04:08.369Z,100.00
2022-11-29T18:06:37.824Z,100.00
2022-11-29T18:09:06.042Z,100.00
2022-11-29T18:11:47.468Z,100.00
2022-11-29T18:14:17.604Z,100.00
2022-11-29T18:16:45.648Z,100.00
2022-11-29T18:19:15.367Z,100.00
2022-11-29T18:21:42.737Z,100.00
2022-11-29T18:24:09.841Z,100.00
2022-11-29T18:26:37.721Z,100.00
2022-11-29T18:29:05.792Z,100.00
2022-11-29T18:31:35.207Z,100.00
2022-11-29T18:34:07.248Z,100.00
2022-11-29T18:36:37.113Z,100.00
2022-11-29T18:39:07.313Z,100.00
2022-11-29T18:41:33.845Z,100.00
2022-11-29T18:44:03.314Z,100.00
2022-11-29T18:46:32.900Z,100.00
2022-11-29T18:49:02.255Z,100.00
2022-11-29T18:51:30.200Z,100.00
2022-11-29T18:53:58.046Z,100.00
2022-11-29T18:56:26.826Z,100.00
2022-11-29T18:58:58.639Z,100.00
2022-11-29T19:01:28.922Z,100.00
2022-11-29T19:03:58.404Z,100.00
2022-11-29T19:06:38.604Z,100.00
2022-11-29T19:09:07.940Z,100.00
2022-11-29T19:11:35.576Z,100.00
2022-11-29T19:14:05.034Z,100.00
2022-11-29T19:16:33.769Z,100.00
2022-11-29T19:19:01.689Z,100.00
2022-11-29T19:21:31.817Z,100.00
2022-11-29T19:24:01.147Z,100.00
2022-11-29T19:26:30.088Z,100.00
2022-11-29T19:28:57.257Z,100.00
2022-11-29T19:31:27.057Z,100.00
2022-11-29T19:33:54.900Z,100.00
2022-11-29T19:36:23.890Z,100.00
2022-11-29T19:38:53.767Z,100.00
2022-11-29T19:41:29.405Z,100.00
2022-11-29T19:43:58.046Z,100.00
2022-11-29T19:46:27.787Z,100.00
2022-11-29T19:48:56.316Z,100.00
2022-11-29T19:51:24.354Z,100.00
2022-11-29T19:53:55.854Z,100.00
2022-11-29T19:56:23.527Z,100.00
2022-11-29T19:58:50.592Z,100.00
2022-11-29T20:01:23.079Z,100.00
2022-11-29T20:03:50.607Z,100.00
2022-11-29T20:06:18.647Z,100.00
2022-11-29T20:08:45.863Z,100.00
2022-11-29T20:11:23.476Z,100.00
2022-11-29T20:13:56.347Z,100.00
2022-11-29T20:16:23.574Z,100.00
2022-11-29T20:18:51.644Z,100.00
2022-11-29T20:21:30.005Z,100.00
2022-11-29T20:23:58.748Z,100.00
2022-11-29T20:26:26.799Z,100.00
2022-11-29T20:28:53.482Z,100.00
2022-11-29T20:31:22.975Z,100.00
2022-11-29T20:33:51.860Z,100.00
2022-11-29T20:36:40.208Z,100.00
2022-11-29T20:39:12.839Z,100.00
2022-11-29T20:42:16.800Z,100.00
2022-11-29T20:44:55.174Z,100.00
2022-11-29T20:47:24.428Z,100.00
2022-11-29T20:49:51.482Z,100.00
2022-11-29T20:52:40.678Z,100.00
2022-11-29T20:55:07.636Z,100.00
2022-11-29T20:57:34.338Z,100.00
2022-11-29T21:00:00.952Z,100.00
2022-11-29T21:02:27.740Z,100.00
2022-11-29T21:04:54.369Z,100.00
2022-11-29T21:07:21.187Z,100.00
2022-11-29T21:09:47.824Z,100.00
2022-11-29T21:12:15.050Z,100.00
2022-11-29T21:14:42.994Z,100.00
2022-11-29T21:17:10.680Z,100.00
2022-11-29T21:19:37.717Z,100.00
2022-11-29T21:22:48.340Z,100.00
2022-11-29T21:25:36.792Z,100.00
2022-11-29T21:28:08.821Z,100.00
2022-11-29T21:30:35.775Z,100.00
2022-11-29T21:33:02.668Z,100.00
2022-11-29T21:35:29.261Z,100.00
2022-11-29T21:37:58.882Z,100.00
2022-11-29T21:40:25.699Z,100.00
2022-11-29T21:42:52.284Z,100.00
2022-11-29T21:45:18.927Z,100.00
2022-11-29T21:47:46.758Z,100.00
2022-11-29T21:50:13.841Z,100.00
2022-11-29T21:52:40.597Z,100.00
2022-11-29T21:55:07.559Z,100.00
2022-11-29T21:57:34.150Z,100.00
2022-11-29T22:00:00.806Z,100.00
2022-11-29T22:02:27.463Z,100.00
2022-11-29T22:04:54.090Z,100.00
2022-11-29T22:07:20.709Z,100.00
2022-11-29T22:09:47.392Z,100.00
2022-11-29T22:12:33.248Z,100.00
2022-11-29T22:15:00.753Z,100.00
2022-11-29T22:17:27.410Z,100.00
2022-11-29T22:19:54.011Z,100.00
2022-11-29T22:22:20.686Z,100.00
2022-11-29T22:24:47.580Z,100.00
2022-11-29T22:27:14.505Z,100.00
2022-11-29T22:29:41.055Z,100.00
2022-11-29T22:32:07.652Z,100.00
2022-11-29T22:34:34.217Z,100.00
2022-11-29T22:37:00.858Z,100.00
2022-11-29T22:39:27.481Z,100.00
2022-11-29T22:41:55.244Z,100.00
2022-11-29T22:44:23.422Z,100.00
2022-11-29T22:46:50.711Z,100.00
2022-11-29T22:49:17.408Z,100.00
2022-11-29T22:51:43.994Z,100.00
2022-11-29T22:54:11.846Z,100.00
2022-11-29T22:56:41.166Z,100.00
2022-11-29T22:59:08.528Z,100.00
2022-11-29T23:01:37.486Z,100.00
2022-11-29T23:04:07.333Z,100.00
2022-11-29T23:06:40.215Z,100.00
2022-11-29T23:09:15.966Z,100.00
2022-11-29T23:11:44.525Z,100.00
2022-11-29T23:14:11.497Z,100.00
2022-11-29T23:16:38.465Z,100.00
2022-11-29T23:19:05.050Z,100.00
2022-11-29T23:21:35.054Z,100.00
2022-11-29T23:24:02.447Z,100.00
2022-11-29T23:26:34.053Z,100.00
2022-11-29T23:29:00.706Z,100.00
2022-11-29T23:31:27.380Z,100.00
2022-11-29T23:33:54.190Z,100.00
2022-11-29T23:36:21.073Z,100.00
2022-11-29T23:38:47.904Z,100.00
2022-11-29T23:41:14.962Z,100.00
2022-11-29T23:43:42.220Z,100.00
2022-11-29T23:46:23.644Z,100.00
2022-11-29T23:48:50.784Z,100.00
2022-11-29T23:51:18.620Z,100.00
2022-11-29T23:53:46.726Z,100.00
2022-11-29T23:56:17.584Z,100.00
2022-11-29T23:58:45.120Z,100.00
